Time;durP1;ratioP1;P1;durP2;ratioP2;P2;SDS_P1;SDS_P2;PMS_P1;PMS_P2;Temp;Humidity;BMP_temperature;BMP_pressure;BME280_temperature;BME280_humidity;BME280_pressure;Samples;Min_cycle;Max_cycle;Signal;HPM_P1;HPM_P2
2021/09/15 04:15:38;;;;;;;13.70;10.20;;;;;;;18.12;100.00;98477.63;5804793;23;20046;-78
2021/09/15 04:18:03;;;;;;;16.05;10.27;;;;;;;18.14;100.00;98473.16;4974571;28;20542;-78
2021/09/15 04:20:29;;;;;;;15.63;10.73;;;;;;;18.16;100.00;98466.03;4974611;28;20034;-78
2021/09/15 04:22:54;;;;;;;12.07;10.60;;;;;;;18.14;100.00;98467.91;4974346;28;20030;-78
2021/09/15 04:33:31;;;;;;;16.92;11.27;;;;;;;18.12;100.00;98479.38;4965849;28;20022;-77
2021/09/15 04:35:56;;;;;;;13.18;10.82;;;;;;;18.10;100.00;98482.09;4970052;28;20026;-77
2021/09/15 04:38:22;;;;;;;14.70;11.40;;;;;;;18.08;100.00;98473.44;4974254;28;20439;-77
2021/09/15 04:40:47;;;;;;;12.52;10.60;;;;;;;18.18;100.00;98495.66;4974075;28;20038;-77
2021/09/15 04:43:13;;;;;;;14.00;10.50;;;;;;;18.07;100.00;98492.75;4973864;28;20025;-77
2021/09/15 04:45:38;;;;;;;17.20;10.82;;;;;;;18.10;100.00;98500.47;4974027;28;20372;-77
2021/09/15 04:48:04;;;;;;;13.55;11.23;;;;;;;18.14;100.00;98496.75;4974063;28;20081;-76
2021/09/15 04:50:30;;;;;;;14.68;11.27;;;;;;;18.15;100.00;98498.44;4966194;28;20023;-76
2021/09/15 04:52:55;;;;;;;20.67;11.23;;;;;;;18.15;100.00;98493.19;4954400;28;20019;-76
2021/09/15 04:55:21;;;;;;;11.45;9.98;;;;;;;18.16;100.00;98502.75;4954541;28;20043;-76
2021/09/15 04:57:46;;;;;;;12.45;11.18;;;;;;;18.19;100.00;98502.59;4954530;28;20477;-76
2021/09/15 05:00:12;;;;;;;12.90;11.13;;;;;;;18.14;100.00;98509.88;4954512;28;20027;-77
2021/09/15 05:02:37;;;;;;;15.25;10.80;;;;;;;18.11;100.00;98510.00;4947365;28;20050;-77
2021/09/15 05:05:03;;;;;;;13.55;11.05;;;;;;;18.13;100.00;98513.41;4963788;28;20043;-77
2021/09/15 05:07:28;;;;;;;12.95;10.52;;;;;;;18.20;100.00;98517.41;4973597;28;20018;-77
2021/09/15 05:09:53;;;;;;;15.82;10.93;;;;;;;18.20;100.00;98520.03;4958338;28;20035;-77
2021/09/15 05:12:19;;;;;;;17.63;11.50;;;;;;;18.23;100.00;98525.13;4952929;29;20027;-77
2021/09/15 05:14:44;;;;;;;13.32;11.63;;;;;;;18.14;100.00;98525.59;4952614;29;20038;-77
2021/09/15 05:17:10;;;;;;;15.77;11.68;;;;;;;18.16;100.00;98531.59;4953918;28;20035;-77
2021/09/15 05:19:36;;;;;;;14.27;9.70;;;;;;;18.16;100.00;98526.34;4954133;28;20023;-77
2021/09/15 05:22:02;;;;;;;16.15;10.35;;;;;;;18.16;100.00;98534.22;4953891;28;20031;-77
2021/09/15 05:24:27;;;;;;;13.65;10.63;;;;;;;18.15;100.00;98535.16;4953889;28;20023;-77
2021/09/15 05:26:52;;;;;;;20.08;11.18;;;;;;;18.16;100.00;98533.38;4953939;28;20125;-77
2021/09/15 05:29:18;;;;;;;17.80;10.50;;;;;;;18.14;100.00;98541.34;4953491;28;20078;-77
2021/09/15 05:31:43;;;;;;;15.40;10.18;;;;;;;18.21;100.00;98547.94;4953801;28;20031;-78
2021/09/15 05:34:09;;;;;;;13.43;10.13;;;;;;;18.16;100.00;98544.72;4962335;28;20056;-78
2021/09/15 05:36:34;;;;;;;15.32;9.80;;;;;;;18.16;100.00;98544.72;4973150;28;20062;-78
2021/09/15 05:38:59;;;;;;;12.98;9.90;;;;;;;18.09;100.00;98545.13;4973000;28;20026;-77
2021/09/15 05:41:25;;;;;;;14.98;9.60;;;;;;;18.12;100.00;98551.03;4971705;28;20064;-77
2021/09/15 05:43:50;;;;;;;13.10;10.18;;;;;;;18.14;100.00;98541.34;4972873;28;20031;-77
2021/09/15 05:46:15;;;;;;;9.90;8.77;;;;;;;18.19;100.00;98552.44;4973069;28;20061;-77
2021/09/15 05:48:41;;;;;;;10.07;9.00;;;;;;;18.33;100.00;98553.47;4973075;28;20030;-77
2021/09/15 05:51:06;;;;;;;10.07;9.05;;;;;;;18.26;100.00;98549.47;4960250;28;20615;-77
2021/09/15 05:53:31;;;;;;;12.65;10.30;;;;;;;18.22;100.00;98559.25;4960999;28;20103;-77
2021/09/15 05:55:57;;;;;;;16.13;11.38;;;;;;;18.22;100.00;98567.97;4968767;28;20034;-77
2021/09/15 05:58:22;;;;;;;14.85;11.85;;;;;;;18.22;100.00;98567.97;4959786;28;20023;-77
2021/09/15 06:00:48;;;;;;;16.00;12.07;;;;;;;18.18;100.00;98560.34;4952395;28;20027;-77
2021/09/15 06:03:14;;;;;;;15.13;11.00;;;;;;;18.21;100.00;98550.56;4960063;28;20022;-77
2021/09/15 06:05:39;;;;;;;18.85;11.48;;;;;;;18.28;100.00;98547.63;4953378;28;20051;-77
2021/09/15 06:08:04;;;;;;;15.07;12.13;;;;;;;18.33;100.00;98545.63;4953463;28;20384;-77
2021/09/15 06:10:30;;;;;;;15.05;10.10;;;;;;;18.39;100.00;98545.28;4964036;28;20077;-77
2021/09/15 06:12:55;;;;;;;12.73;9.27;;;;;;;18.44;100.00;98548.50;4972654;28;20054;-82
2021/09/15 06:15:21;;;;;;;19.90;11.50;;;;;;;18.54;100.00;98554.94;4971381;28;20399;-82
2021/09/15 06:17:46;;;;;;;19.15;12.65;;;;;;;18.59;100.00;98546.81;4973068;28;20019;-82
2021/09/15 06:20:13;;;;;;;17.17;11.40;;;;;;;18.60;100.00;98557.22;4971541;28;20039;-82
2021/09/15 06:22:38;;;;;;;18.33;10.80;;;;;;;18.45;100.00;98558.06;4959772;28;20103;-82
2021/09/15 06:25:04;;;;;;;18.15;11.10;;;;;;;18.38;100.00;98559.31;4952171;29;20140;-82
2021/09/15 06:27:29;;;;;;;18.10;14.27;;;;;;;18.39;100.00;98566.25;4953379;28;20019;-82
2021/09/15 06:29:55;;;;;;;17.30;13.23;;;;;;;18.46;100.00;98562.38;4953463;28;20036;-82
2021/09/15 06:32:21;;;;;;;14.27;10.68;;;;;;;18.58;100.00;98574.84;4954981;28;20035;-82
2021/09/15 06:34:47;;;;;;;13.38;10.60;;;;;;;18.49;100.00;98577.97;4964509;28;20018;-82
2021/09/15 06:37:14;;;;;;;12.32;10.00;;;;;;;18.37;100.00;98568.97;4972415;28;20158;-82
2021/09/15 06:39:40;;;;;;;18.80;11.00;;;;;;;18.30;100.00;98572.00;4966380;28;20019;-82
2021/09/15 06:42:06;;;;;;;16.45;11.35;;;;;;;18.37;100.00;98565.47;4955496;28;20038;-82
2021/09/15 06:44:32;;;;;;;20.92;12.70;;;;;;;18.32;100.00;98564.88;4956929;28;20622;-82
2021/09/15 06:46:57;;;;;;;24.30;12.63;;;;;;;18.28;100.00;98568.63;4956794;28;20035;-82
2021/09/15 06:49:23;;;;;;;19.23;12.32;;;;;;;18.30;100.00;98572.00;4956791;28;20105;-82
2021/09/15 06:51:48;;;;;;;18.98;11.95;;;;;;;18.39;100.00;98566.25;4956604;28;20027;-81
2021/09/15 06:54:13;;;;;;;16.83;11.75;;;;;;;18.47;100.00;98564.09;4955382;29;20469;-82
2021/09/15 06:56:39;;;;;;;21.85;11.30;;;;;;;18.37;100.00;98558.47;4956601;28;20058;-81
2021/09/15 06:59:04;;;;;;;17.92;9.98;;;;;;;18.42;100.00;98552.97;4974032;28;20045;-81
2021/09/15 07:01:30;;;;;;;17.08;10.57;;;;;;;18.47;100.00;98556.22;4975746;28;20047;-82
2021/09/15 07:03:55;;;;;;;21.70;10.75;;;;;;;18.55;100.00;98551.38;4964367;28;20031;-82
2021/09/15 07:06:20;;;;;;;14.38;10.20;;;;;;;18.60;100.00;98549.34;4973119;28;20132;-82
2021/09/15 07:08:49;;;;;;;12.90;9.90;;;;;;;18.55;100.00;98561.03;4975848;28;20431;-82
2021/09/15 07:11:14;;;;;;;13.57;10.40;;;;;;;18.54;100.00;98554.94;4975605;28;20050;-81
2021/09/15 07:13:39;;;;;;;12.18;9.60;;;;;;;18.55;100.00;98554.00;4976003;28;20015;-82
2021/09/15 07:16:05;;;;;;;13.43;10.23;;;;;;;18.47;100.00;98545.72;4975683;28;20043;-82
2021/09/15 07:18:30;;;;;;;15.82;10.13;;;;;;;18.41;100.00;98538.16;4974314;28;20034;-82
2021/09/15 07:20:56;;;;;;;17.65;10.63;;;;;;;18.34;100.00;98526.31;4964275;28;20106;-82
2021/09/15 07:23:21;;;;;;;18.08;10.30;;;;;;;18.40;100.00;98523.34;4955834;28;20027;-82
2021/09/15 07:25:46;;;;;;;19.77;10.52;;;;;;;18.49;100.00;98521.06;4954939;28;20484;-82
2021/09/15 07:28:12;;;;;;;14.48;8.18;;;;;;;18.50;100.00;98516.66;4956112;28;20031;-82
2021/09/15 07:30:37;;;;;;;14.13;7.53;;;;;;;18.54;100.00;98523.44;4956130;28;20075;-82
2021/09/15 07:33:03;;;;;;;21.20;10.43;;;;;;;18.55;100.00;98514.66;4963373;28;20061;-82
2021/09/15 07:35:28;;;;;;;25.92;11.63;;;;;;;18.54;100.00;98526.06;4967122;28;20067;-82
2021/09/15 07:37:53;;;;;;;18.77;11.98;;;;;;;18.59;100.00;98531.91;4975542;28;20037;-82
2021/09/15 07:40:19;;;;;;;20.35;12.40;;;;;;;18.60;100.00;98538.84;4975266;28;20106;-82
2021/09/15 07:42:45;;;;;;;22.55;13.57;;;;;;;18.60;100.00;98538.84;4973599;28;20026;-82
2021/09/15 07:45:12;;;;;;;24.45;13.45;;;;;;;18.67;100.00;98534.97;4975066;28;20369;-82
2021/09/15 07:47:39;;;;;;;17.45;12.30;;;;;;;18.75;100.00;98542.44;4975100;28;20694;-82
2021/09/15 07:50:05;;;;;;;18.27;12.98;;;;;;;18.81;100.00;98547.38;4970673;28;20031;-82
2021/09/15 07:52:30;;;;;;;17.65;12.15;;;;;;;18.91;100.00;98563.47;4955338;28;20038;-81
2021/09/15 07:54:56;;;;;;;21.27;12.25;;;;;;;19.05;100.00;98574.06;4955957;28;20023;-82
2021/09/15 07:57:21;;;;;;;13.32;11.27;;;;;;;19.13;100.00;98573.63;4960441;28;20101;-82
2021/09/15 07:59:46;;;;;;;15.30;11.73;;;;;;;19.20;100.00;98570.56;4975120;28;20053;-82
2021/09/15 08:02:12;;;;;;;19.30;11.75;;;;;;;19.12;100.00;98562.25;4969830;28;20034;-82
2021/09/15 08:04:37;;;;;;;15.15;11.25;;;;;;;19.08;100.00;98560.75;4966713;28;20027;-82
2021/09/15 08:07:03;;;;;;;16.52;10.68;;;;;;;19.19;100.00;98563.59;4974600;28;20464;-82
2021/09/15 08:09:28;;;;;;;18.95;10.25;;;;;;;19.41;100.00;98557.13;4974863;28;20110;-82
2021/09/15 08:11:54;;;;;;;12.55;8.63;;;;;;;19.30;100.00;98554.28;4967837;28;20468;-82
2021/09/15 08:14:19;;;;;;;14.85;9.50;;;;;;;19.41;100.00;98544.84;4955355;28;20047;-82
2021/09/15 08:16:44;;;;;;;12.10;6.18;;;;;;;19.38;100.00;98558.16;4955211;28;20073;-82
2021/09/15 08:19:10;;;;;;;13.68;8.18;;;;;;;19.44;100.00;98578.00;4953931;29;20468;-82
2021/09/15 08:21:35;;;;;;;15.35;9.02;;;;;;;19.22;100.00;98594.97;4954885;28;20023;-82
2021/09/15 08:24:00;;;;;;;12.98;10.65;;;;;;;19.08;100.00;98592.25;4955060;28;20024;-82
2021/09/15 08:26:26;;;;;;;19.35;10.55;;;;;;;18.99;100.00;98592.75;4955016;28;20369;-82
2021/09/15 08:28:52;;;;;;;15.77;10.13;;;;;;;18.92;100.00;98597.50;4955096;28;20104;-84
2021/09/15 08:31:17;;;;;;;17.10;10.23;;;;;;;18.96;100.00;98592.94;4954801;28;20054;-82
2021/09/15 08:33:42;;;;;;;15.75;10.15;;;;;;;18.90;100.00;98598.50;4962794;28;20047;-82
2021/09/15 08:36:08;;;;;;;14.27;10.00;;;;;;;19.02;100.00;98592.59;4971034;28;20102;-82
2021/09/15 08:38:33;;;;;;;13.85;10.07;;;;;;;19.08;100.00;98596.66;4974275;28;20038;-82
2021/09/15 08:40:59;;;;;;;14.95;9.98;;;;;;;19.12;100.00;98583.28;4974119;28;20494;-82
2021/09/15 08:43:24;;;;;;;14.23;5.70;;;;;;;19.10;99.58;98590.41;4973991;28;20555;-82
2021/09/15 08:45:50;;;;;;;11.10;7.13;;;;;;;19.32;99.93;98589.19;4974016;28;20031;-78
2021/09/15 08:48:18;;;;;;;9.60;6.53;;;;;;;19.33;100.00;98601.38;4973866;28;20062;-78
2021/09/15 08:50:45;;;;;;;13.32;7.03;;;;;;;19.46;100.00;98602.41;4964151;28;20107;-78
2021/09/15 08:53:11;;;;;;;11.75;7.35;;;;;;;19.50;95.32;98619.69;4954519;28;20110;-78
2021/09/15 08:55:36;;;;;;;9.27;6.25;;;;;;;19.51;96.78;98632.72;4954380;28;20388;-78
2021/09/15 08:58:02;;;;;;;11.50;6.88;;;;;;;19.40;99.13;98634.28;4964965;28;20560;-77
2021/09/15 09:00:27;;;;;;;8.35;6.80;;;;;;;19.34;99.58;98650.38;4973757;28;20587;-77
2021/09/15 09:02:53;;;;;;;13.60;8.13;;;;;;;19.36;100.00;98649.38;4968523;28;20109;-77
2021/09/15 09:05:19;;;;;;;7.85;6.03;;;;;;;19.12;100.00;98643.69;4964762;28;20033;-77
2021/09/15 09:07:44;;;;;;;11.18;5.15;;;;;;;19.00;100.00;98645.22;4972377;28;20469;-77
2021/09/15 09:10:13;;;;;;;14.55;6.45;;;;;;;18.92;100.00;98639.53;4973563;28;20023;-76
2021/09/15 09:12:41;;;;;;;17.80;5.05;;;;;;;18.71;98.33;98625.78;4973854;28;20065;-76
2021/09/15 09:15:14;;;;;;;8.27;3.67;;;;;;;18.56;99.20;98616.03;4953192;29;20027;-78
2021/09/15 09:17:41;;;;;;;7.72;3.50;;;;;;;18.57;95.70;98612.53;4954396;28;20038;-79
2021/09/15 09:20:21;;;;;;;5.90;3.50;;;;;;;18.52;96.50;98625.03;4956759;28;20457;-79
2021/09/15 09:22:59;;;;;;;6.60;3.38;;;;;;;18.49;96.01;98623.41;4954048;28;20050;-78
2021/09/15 09:25:26;;;;;;;7.95;4.10;;;;;;;18.49;93.17;98619.94;4954418;28;20019;-79
2021/09/15 09:27:52;;;;;;;10.07;5.35;;;;;;;18.42;92.96;98618.56;4954451;28;20035;-78
2021/09/15 09:30:38;;;;;;;7.05;3.30;;;;;;;18.48;94.33;98615.63;4953763;28;20042;-78
2021/09/15 09:33:05;;;;;;;5.38;3.75;;;;;;;18.44;95.75;98621.97;4960856;28;20613;-78
2021/09/15 09:35:41;;;;;;;6.38;3.70;;;;;;;18.48;93.86;98632.22;4965777;28;20025;-82
2021/09/15 09:38:29;;;;;;;7.38;3.70;;;;;;;18.55;93.95;98622.22;4973873;28;20034;-77
2021/09/15 09:41:13;;;;;;;7.47;3.40;;;;;;;18.64;91.37;98634.88;4973605;28;20357;-77
2021/09/15 09:43:42;;;;;;;6.35;3.95;;;;;;;18.66;91.37;98638.28;4973729;28;20031;-82
2021/09/15 09:46:09;;;;;;;;;;;;;;;18.61;91.85;98650.75;4973777;28;20031;-78
2021/09/15 09:48:37;;;;;;;5.85;3.53;;;;;;;18.54;92.77;98659.91;4971880;28;20384;-83
2021/09/15 09:51:22;;;;;;;14.68;5.75;;;;;;;18.34;94.65;98668.81;4958462;28;20415;-82
2021/09/15 09:53:49;;;;;;;10.30;4.75;;;;;;;18.24;96.82;98649.22;4953810;28;20026;-80
2021/09/15 09:56:15;;;;;;;7.47;3.85;;;;;;;18.12;98.75;98641.97;4953674;28;20027;-79
2021/09/15 09:58:43;;;;;;;7.13;4.10;;;;;;;18.10;98.44;98641.22;4967921;28;20027;-79
2021/09/15 10:01:16;;;;;;;7.72;4.55;;;;;;;18.09;100.00;98636.91;4972587;28;20022;-80
2021/09/15 10:03:42;;;;;;;9.55;4.80;;;;;;;18.14;99.43;98640.97;4963418;28;20026;-80
2021/09/15 10:06:11;;;;;;;12.50;4.22;;;;;;;18.18;100.00;98642.53;4969597;28;20054;-77
2021/09/15 10:08:37;;;;;;;9.15;4.90;;;;;;;18.08;100.00;98636.03;4960885;28;20556;-78
2021/09/15 10:11:02;;;;;;;8.82;4.88;;;;;;;18.01;100.00;98632.03;4953487;28;20027;-78
2021/09/15 10:13:28;;;;;;;11.45;5.35;;;;;;;18.08;100.00;98625.53;4956832;28;20045;-78
2021/09/15 10:15:58;;;;;;;8.93;4.78;;;;;;;18.20;99.52;98624.06;4975008;28;20444;-78
2021/09/15 10:18:24;;;;;;;17.48;9.65;;;;;;;18.37;100.00;98620.56;4976791;28;20065;-83
2021/09/15 10:20:55;;;;;;;15.07;5.82;;;;;;;18.76;100.00;98615.03;4965403;28;20113;-77
2021/09/15 10:23:55;;;;;;;13.48;5.25;;;;;;;19.17;100.00;98623.25;4959793;28;20114;-82
2021/09/15 10:26:30;;;;;;;5.25;3.65;;;;;;;19.40;93.23;98618.50;4975664;28;20030;-79
2021/09/15 10:29:15;;;;;;;6.68;3.33;;;;;;;19.49;90.98;98613.59;4988727;23;20110;-79
2021/09/15 10:32:00;;;;;;;8.00;4.10;;;;;;;19.46;91.12;98626.03;4922065;29;20035;-80
2021/09/15 10:34:38;;;;;;;9.52;4.38;;;;;;;19.41;92.62;98625.47;4937785;29;20122;-79
2021/09/15 10:37:23;;;;;;;4.07;3.55;;;;;;;19.54;91.24;98618.59;4937722;29;20031;-79
2021/09/15 10:39:52;;;;;;;4.25;3.67;;;;;;;19.73;91.61;98624.50;4937242;28;20043;-79
2021/09/15 10:42:36;;;;;;;10.68;3.50;;;;;;;19.58;90.30;98606.97;4937582;29;20106;-79
2021/09/15 10:45:14;;;;;;;8.15;4.28;;;;;;;19.43;93.25;98624.41;4935973;29;20032;-79
2021/09/15 10:47:45;;;;;;;7.40;3.90;;;;;;;19.52;89.45;98612.56;4937403;29;20054;-79
2021/09/15 10:50:31;;;;;;;5.95;3.92;;;;;;;19.52;93.88;98613.38;4937741;29;20520;-79
2021/09/15 10:53:17;;;;;;;8.25;4.22;;;;;;;19.63;90.35;98612.84;4937271;29;20028;-79
2021/09/15 10:55:42;;;;;;;12.35;3.97;;;;;;;19.44;90.89;98620.88;4937582;29;20035;-79
2021/09/15 10:58:12;;;;;;;6.17;4.07;;;;;;;19.58;89.78;98616.59;4928911;29;20038;-79
2021/09/15 11:00:51;;;;;;;6.53;4.05;;;;;;;19.42;91.97;98611.38;4918406;29;20296;-79
2021/09/15 11:03:32;;;;;;;4.53;3.70;;;;;;;19.53;93.51;98614.22;4929339;29;20063;-79
2021/09/15 11:06:06;;;;;;;7.50;3.55;;;;;;;19.50;93.72;98614.44;4932867;29;20031;-79
2021/09/15 11:08:39;;;;;;;6.28;4.47;;;;;;;19.36;96.07;98607.31;4937435;29;20032;-79
2021/09/15 11:11:09;;;;;;;6.93;4.00;;;;;;;19.55;95.39;98601.88;4936999;29;20342;-79
2021/09/15 11:13:35;;;;;;;6.72;3.65;;;;;;;19.55;92.23;98596.63;4937382;29;20055;-79
2021/09/15 11:16:38;;;;;;;8.18;4.03;;;;;;;19.63;92.81;98593.56;4935947;29;20028;-79
2021/09/15 11:19:18;;;;;;;9.50;4.10;;;;;;;19.46;95.51;98597.97;4937114;29;20027;-79
2021/09/15 11:21:47;;;;;;;6.15;4.18;;;;;;;19.63;94.88;98594.44;4936826;29;20075;-79
2021/09/15 11:24:17;;;;;;;7.45;4.28;;;;;;;20.03;93.60;98599.97;4937030;29;20102;-79
2021/09/15 11:26:44;;;;;;;5.40;3.88;;;;;;;19.50;95.61;98572.38;4936129;29;20564;-79
2021/09/15 11:29:10;;;;;;;5.28;3.72;;;;;;;19.69;94.91;98586.19;4936616;29;20031;-79
2021/09/15 11:31:36;;;;;;;7.80;4.10;;;;;;;19.92;93.40;98594.50;4936815;29;20082;-79
2021/09/15 11:34:06;;;;;;;5.70;4.13;;;;;;;19.98;93.25;98605.50;4928855;29;20023;-79
2021/09/15 11:36:31;;;;;;;5.47;3.72;;;;;;;20.05;91.14;98595.47;4936453;29;20031;-81
2021/09/15 11:38:57;;;;;;;6.05;3.72;;;;;;;19.96;92.05;98591.59;4929330;29;20028;-80
2021/09/15 11:41:23;;;;;;;7.22;4.13;;;;;;;20.04;89.49;98591.16;4923948;29;20036;-80
2021/09/15 11:43:49;;;;;;;4.65;3.83;;;;;;;20.05;89.38;98595.47;4917743;29;20154;-80
2021/09/15 11:46:16;;;;;;;6.35;3.92;;;;;;;20.14;91.45;98589.66;4917740;29;20494;-80
2021/09/15 11:48:43;;;;;;;8.63;4.43;;;;;;;20.03;91.54;98576.31;4917677;29;20512;-80
2021/09/15 11:51:16;;;;;;;5.15;3.88;;;;;;;19.98;92.03;98565.22;4930137;29;20130;-80
2021/09/15 11:53:48;;;;;;;7.03;4.47;;;;;;;19.98;91.31;98557.31;4934890;29;20019;-80
2021/09/15 11:56:18;;;;;;;6.80;4.20;;;;;;;20.02;91.60;98558.84;4936422;29;20027;-80
2021/09/15 11:58:44;;;;;;;;;;;;;;;19.90;88.31;98562.19;4920932;29;20035;-80
2021/09/15 12:01:14;;;;;;;6.55;4.00;;;;;;;19.99;91.18;98562.47;4917179;29;19982;-80
2021/09/15 12:03:40;;;;;;;6.32;4.20;;;;;;;20.09;89.64;98561.94;4929646;29;20031;-80
2021/09/15 12:06:06;;;;;;;7.75;4.25;;;;;;;20.16;89.12;98555.34;4932895;29;20374;-80
2021/09/15 12:08:34;;;;;;;5.15;3.72;;;;;;;20.07;91.91;98562.03;4936090;29;20032;-80
2021/09/15 12:11:00;;;;;;;7.72;4.55;;;;;;;20.22;90.00;98560.25;4936073;29;20444;-80
2021/09/15 12:13:30;;;;;;;7.65;4.30;;;;;;;20.35;89.21;98550.66;4935799;29;20417;-80
2021/09/15 12:15:55;;;;;;;;;;;;;;;20.55;88.95;98546.84;4936611;29;20477;-80
2021/09/15 12:18:21;;;;;;;7.85;3.75;;;;;;;20.37;88.39;98553.22;4936063;29;19911;-80
2021/09/15 12:20:51;;;;;;;8.00;3.60;;;;;;;20.34;86.33;98542.88;4934596;29;20129;-80
2021/09/15 12:23:30;;;;;;;8.20;4.20;;;;;;;20.46;90.24;98531.59;4950387;29;20028;-80
2021/09/15 12:25:57;;;;;;;6.27;3.77;;;;;;;20.16;90.14;98529.91;4935923;29;20476;-79
2021/09/15 12:28:28;;;;;;;7.93;3.75;;;;;;;20.51;90.94;98519.88;4935911;29;20106;-81
2021/09/15 12:30:55;;;;;;;8.45;4.20;;;;;;;20.19;92.39;98513.09;4935643;29;20063;-79
2021/09/15 12:33:26;;;;;;;7.57;3.80;;;;;;;20.83;87.14;98508.22;4927635;29;20024;-79
2021/09/15 12:36:14;;;;;;;8.93;4.22;;;;;;;20.79;85.57;98497.91;4920555;29;20031;-80
2021/09/15 12:38:57;;;;;;;7.55;4.18;;;;;;;20.99;85.58;98503.69;4916687;29;20024;-81
2021/09/15 12:41:24;;;;;;;6.35;4.03;;;;;;;21.25;86.78;98505.44;4916486;29;20028;-81
2021/09/15 12:43:50;;;;;;;6.57;4.10;;;;;;;21.47;84.19;98504.06;4916566;29;20421;-81
2021/09/15 12:46:28;;;;;;;7.90;4.22;;;;;;;21.85;83.61;98508.50;4915420;29;20032;-81
2021/09/15 12:48:54;;;;;;;4.80;3.10;;;;;;;22.26;82.93;98508.31;4915779;29;20036;-81
2021/09/15 12:51:21;;;;;;;6.68;3.63;;;;;;;22.55;79.61;98506.28;4928543;29;20503;-80
2021/09/15 12:53:51;;;;;;;10.57;3.75;;;;;;;22.77;77.68;98502.91;4925625;28;20024;-81
2021/09/15 12:56:17;;;;;;;31.23;21.88;;;;;;;22.80;74.78;98492.97;4925642;29;20114;-81
2021/09/15 12:58:43;;;;;;;4.90;3.25;;;;;;;22.90;72.76;98489.69;4924863;29;20026;-81
2021/09/15 13:01:18;;;;;;;8.70;3.50;;;;;;;22.48;72.22;98486.50;4927118;29;20020;-81
2021/09/15 13:03:44;;;;;;;6.82;3.42;;;;;;;22.05;78.34;98485.09;4935106;29;20086;-79
2021/09/15 13:06:14;;;;;;;4.85;3.40;;;;;;;22.45;80.14;98481.47;4935162;29;20046;-79
2021/09/15 13:08:47;;;;;;;8.63;3.47;;;;;;;22.75;75.33;98484.53;4935155;29;20038;-79
2021/09/15 13:11:12;;;;;;;6.50;3.33;;;;;;;22.84;74.19;98483.03;4934840;29;20043;-79
2021/09/15 13:13:38;;;;;;;7.15;3.60;;;;;;;22.97;74.92;98477.75;4935040;29;20023;-80
2021/09/15 13:16:03;;;;;;;5.05;3.17;;;;;;;23.22;71.69;98474.13;4927566;29;20024;-80
2021/09/15 13:18:29;;;;;;;7.28;3.35;;;;;;;22.82;72.60;98480.53;4926711;29;20020;-80
2021/09/15 13:20:54;;;;;;;4.80;3.30;;;;;;;22.95;72.40;98479.63;4931369;29;20087;-79
2021/09/15 13:23:19;;;;;;;5.28;4.22;;;;;;;23.23;71.92;98468.72;4916994;29;20488;-80
2021/09/15 13:25:45;;;;;;;7.82;5.07;;;;;;;23.54;69.69;98474.31;4920928;29;20106;-79
2021/09/15 13:28:10;;;;;;;9.85;3.40;;;;;;;23.29;69.84;98468.25;4926489;29;20381;-79
2021/09/15 13:30:35;;;;;;;3.97;3.08;;;;;;;22.88;71.43;98473.09;4927699;29;20508;-74
2021/09/15 13:33:01;;;;;;;4.20;3.00;;;;;;;22.92;74.38;98466.63;4929907;29;20114;-74
2021/09/15 13:35:26;;;;;;;3.78;2.80;;;;;;;22.99;74.73;98465.25;4926632;29;20437;-74
2021/09/15 13:37:53;;;;;;;7.93;3.72;;;;;;;22.74;71.94;98467.00;4933462;29;20031;-74
2021/09/15 13:40:19;;;;;;;4.47;3.00;;;;;;;22.48;72.29;98470.69;4934547;29;20078;-72
2021/09/15 13:42:44;;;;;;;4.57;3.30;;;;;;;22.47;74.35;98467.19;4934342;29;20032;-73
2021/09/15 13:45:14;;;;;;;6.30;3.25;;;;;;;22.55;75.75;98467.50;4933942;29;20027;-73
2021/09/15 13:47:44;;;;;;;5.38;3.08;;;;;;;22.30;75.61;98471.06;4919991;29;20057;-73
2021/09/15 13:50:20;;;;;;;4.47;3.08;;;;;;;22.15;78.00;98480.06;4933954;29;20020;-73
2021/09/15 13:52:49;;;;;;;6.20;3.20;;;;;;;21.90;76.99;98474.75;4926249;29;20023;-76
2021/09/15 13:55:17;;;;;;;8.40;2.95;;;;;;;21.77;74.27;98467.69;4926654;29;20028;-73
2021/09/15 13:57:42;;;;;;;4.53;3.22;;;;;;;21.79;75.89;98464.94;4931854;29;20020;-73
2021/09/15 14:00:09;;;;;;;7.45;3.00;;;;;;;21.70;74.34;98458.50;4934255;29;20027;-73
2021/09/15 14:02:38;;;;;;;5.07;3.05;;;;;;;21.55;76.43;98459.53;4929504;29;20023;-74
2021/09/15 14:05:06;;;;;;;5.78;3.45;;;;;;;21.74;74.74;98465.25;4926394;29;20070;-73
2021/09/15 14:07:32;;;;;;;4.72;3.08;;;;;;;21.88;74.21;98460.81;4934435;29;20032;-73
2021/09/15 14:09:57;;;;;;;7.13;3.53;;;;;;;22.02;74.58;98464.19;4934211;29;20031;-73
2021/09/15 14:12:22;;;;;;;7.60;3.92;;;;;;;22.03;75.17;98462.41;4934119;29;20031;-73
2021/09/15 14:14:48;;;;;;;6.78;3.10;;;;;;;22.13;74.39;98460.81;4934382;29;20027;-74
2021/09/15 14:17:13;;;;;;;4.85;3.58;;;;;;;22.01;75.65;98461.66;4934199;29;20186;-74
2021/09/15 14:19:40;;;;;;;9.48;4.93;;;;;;;21.94;72.06;98463.03;4934209;29;20539;-75
2021/09/15 14:22:05;;;;;;;6.43;3.63;;;;;;;21.87;74.00;98465.25;4934079;29;20486;-76
2021/09/15 14:24:31;;;;;;;3.00;2.70;;;;;;;21.80;74.79;98459.53;4934114;29;20059;-76
2021/09/15 14:26:56;;;;;;;7.65;3.15;;;;;;;21.62;75.81;98460.84;4934218;29;20027;-76
2021/09/15 14:29:21;;;;;;;6.82;3.28;;;;;;;21.55;74.00;98472.72;4933961;29;20039;-73
2021/09/15 14:31:47;;;;;;;5.95;2.97;;;;;;;21.39;73.49;98470.28;4933937;29;20023;-73
2021/09/15 14:34:12;;;;;;;10.85;3.35;;;;;;;21.34;74.46;98466.28;4926061;29;20031;-73
2021/09/15 14:36:37;;;;;;;4.85;3.45;;;;;;;21.34;75.17;98468.91;4926036;29;20035;-73
2021/09/15 14:39:03;;;;;;;3.95;2.90;;;;;;;21.28;74.95;98468.34;4926367;29;20090;-73
2021/09/15 14:41:28;;;;;;;5.43;3.15;;;;;;;21.27;75.07;98469.28;4933570;29;20085;-76
2021/09/15 14:43:53;;;;;;;4.57;3.15;;;;;;;21.30;75.22;98471.75;4933982;29;20031;-76
2021/09/15 14:46:19;;;;;;;9.07;3.72;;;;;;;21.14;75.91;98475.47;4934031;29;20115;-76
2021/09/15 14:48:44;;;;;;;9.88;6.93;;;;;;;21.12;77.36;98475.56;4933932;29;20034;-76
2021/09/15 14:51:10;;;;;;;5.95;3.70;;;;;;;21.14;78.56;98476.31;4933550;29;20039;-76
2021/09/15 14:53:35;;;;;;;7.93;3.47;;;;;;;21.09;77.94;98477.56;4921458;29;20078;-76
2021/09/15 14:56:01;;;;;;;6.95;3.47;;;;;;;21.03;77.33;98473.53;4926513;29;20028;-76
2021/09/15 14:58:26;;;;;;;9.15;3.72;;;;;;;21.02;77.36;98471.84;4925394;29;20034;-76
2021/09/15 15:00:51;;;;;;;5.95;3.22;;;;;;;20.85;77.01;98466.84;4919853;29;20063;-76
2021/09/15 15:03:17;;;;;;;4.75;3.17;;;;;;;20.83;76.62;98460.81;4929539;29;20135;-76
2021/09/15 15:05:42;;;;;;;6.63;3.17;;;;;;;20.95;77.31;98470.56;4930941;29;20098;-76
2021/09/15 15:08:08;;;;;;;4.45;3.55;;;;;;;21.03;78.67;98469.13;4936007;29;20103;-76
2021/09/15 15:10:34;;;;;;;6.82;3.20;;;;;;;20.94;78.52;98471.53;4937044;29;20401;-76
2021/09/15 15:13:00;;;;;;;6.07;3.58;;;;;;;21.08;78.30;98479.38;4936465;29;20027;-76
2021/09/15 15:15:26;;;;;;;5.10;3.42;;;;;;;20.91;77.15;98474.34;4937060;29;20030;-76
2021/09/15 15:17:51;;;;;;;10.48;3.88;;;;;;;20.90;76.88;98472.66;4937205;29;20124;-74
2021/09/15 15:20:18;;;;;;;9.25;3.10;;;;;;;20.75;75.96;98475.34;4937077;29;20385;-73
2021/09/15 15:22:48;;;;;;;4.05;2.80;;;;;;;20.74;77.89;98478.91;4935023;29;20110;-73
2021/09/15 15:25:16;;;;;;;9.55;3.70;;;;;;;20.52;77.54;98478.59;4927796;29;20034;-73
2021/09/15 15:27:46;;;;;;;3.30;2.92;;;;;;;20.39;77.45;98472.38;4927844;29;20028;-73
2021/09/15 15:30:14;;;;;;;6.55;3.30;;;;;;;20.49;79.22;98476.13;4917506;29;20067;-74
2021/09/15 15:32:41;;;;;;;7.03;3.08;;;;;;;20.56;76.73;98473.97;4920257;29;20494;-73
2021/09/15 15:35:09;;;;;;;7.22;3.00;;;;;;;20.52;75.97;98478.59;4923902;29;20492;-72
2021/09/15 15:37:35;;;;;;;3.15;2.85;;;;;;;20.48;75.36;98480.56;4915838;29;20032;-73
2021/09/15 15:40:01;;;;;;;7.85;3.25;;;;;;;20.59;74.71;98479.88;4916129;29;20067;-72
2021/09/15 15:42:27;;;;;;;5.80;3.28;;;;;;;20.49;75.48;98481.41;4931300;29;20074;-72
2021/09/15 15:44:53;;;;;;;5.50;3.03;;;;;;;20.41;76.34;98486.28;4917744;29;20141;-72
2021/09/15 15:47:18;;;;;;;10.15;5.25;;;;;;;20.35;76.56;98476.13;4917685;29;20386;-73
2021/09/15 15:49:43;;;;;;;6.20;3.03;;;;;;;20.29;76.22;98467.69;4919332;29;20043;-72